KIGM

Kingman Airport

Kingman, Arizona, USA
METAR KIGM 180251Z AUTO 10008KT 10SM CLR 06/M08 A3008 RMK AO2 SLP168 T00561078 53024
Observed Flight Rules
Dec-18 @ 02:51 UTC (12 minutes ago) Visual Flight Rules
Wind Visibility Clouds
100° at 8 knots 10 miles
  • Clear skies
Temperatures Readings
Current 6°C / 43°F
Dewpoint -8°C / 18°F
Humidity 36%
Altimeter 30.08" Hg
Pressure 1016.8 hPa
Elevation 1032
METAR KIGM 180251Z AUTO 10008KT 10SM CLR 06/M08 A3008 RMK AO2 SLP168 T00561078 53024
Observed Flight Rules
Dec-18 @ 02:51 UTC
(12 minutes ago)
VFR
Wind Visibility
100° at 8 knots 10 miles
Clouds
  • Clear skies
Temperature Dewpoint
6°C / 43°F -8°C / 18°F
Humidity Altimeter Pressure
36% 30.08" Hg 1016.8 hPa